createdAt,value
2022-11-12T00:01:33.844Z,12.15
2022-11-12T00:04:18.644Z,11.43
2022-11-12T00:07:03.520Z,11.18
2022-11-12T00:09:48.326Z,11.02
2022-11-12T00:12:33.218Z,10.48
2022-11-12T00:15:18.672Z,10.07
2022-11-12T00:18:04.089Z,10.50
2022-11-12T00:20:49.488Z,10.07
2022-11-12T00:23:34.657Z,9.98
2022-11-12T00:26:19.558Z,9.70
2022-11-12T00:29:04.668Z,10.23
2022-11-12T00:31:49.855Z,10.48
2022-11-12T00:34:35.057Z,10.18
2022-11-12T00:37:20.869Z,11.35
2022-11-12T00:40:06.728Z,10.25
2022-11-12T00:42:52.762Z,10.52
2022-11-12T00:45:37.590Z,9.68
2022-11-12T00:48:22.804Z,8.77
2022-11-12T00:51:07.989Z,10.50
2022-11-12T00:53:53.185Z,8.65
2022-11-12T00:56:38.244Z,11.23
2022-11-12T00:59:23.047Z,9.48
2022-11-12T01:02:08.265Z,10.50
2022-11-12T01:04:53.093Z,9.13
2022-11-12T01:07:38.057Z,8.23
2022-11-12T01:10:23.243Z,9.55
2022-11-12T01:13:08.173Z,8.60
2022-11-12T01:15:53.101Z,9.20
2022-11-12T01:18:38.345Z,9.13
2022-11-12T01:21:25.533Z,9.23
2022-11-12T01:24:11.280Z,8.23
2022-11-12T01:26:56.274Z,7.97
2022-11-12T01:29:41.268Z,8.43
2022-11-12T01:32:27.773Z,8.77
2022-11-12T01:35:12.952Z,9.20
2022-11-12T01:37:57.758Z,8.68
2022-11-12T01:40:42.683Z,8.63
2022-11-12T01:43:27.583Z,8.15
2022-11-12T01:46:27.586Z,7.95
2022-11-12T01:49:26.972Z,8.55
2022-11-12T01:52:37.251Z,8.43
2022-11-12T01:55:25.791Z,7.38
2022-11-12T01:58:15.476Z,8.30
2022-11-12T02:01:02.527Z,8.07
2022-11-12T02:03:47.616Z,8.10
2022-11-12T02:06:33.840Z,8.32
2022-11-12T02:09:19.377Z,8.32
2022-11-12T02:12:05.266Z,7.97
2022-11-12T02:14:50.383Z,8.52
2022-11-12T02:17:35.553Z,7.43
2022-11-12T02:20:20.616Z,8.65
2022-11-12T02:23:07.360Z,8.13
2022-11-12T02:25:52.284Z,9.15
2022-11-12T02:28:37.423Z,7.50
2022-11-12T02:31:22.858Z,8.75
2022-11-12T02:34:07.763Z,8.20
2022-11-12T02:36:52.990Z,8.93
2022-11-12T02:39:38.382Z,8.55
2022-11-12T02:42:23.592Z,8.98
2022-11-12T02:45:08.915Z,8.57
2022-11-12T02:47:53.967Z,8.02
2022-11-12T02:50:39.066Z,8.48
2022-11-12T02:53:24.057Z,8.15
2022-11-12T02:56:09.212Z,7.80
2022-11-12T02:58:54.144Z,8.15
2022-11-12T03:01:39.095Z,8.40
2022-11-12T03:04:24.307Z,9.65
2022-11-12T03:07:09.336Z,8.52
2022-11-12T03:09:54.201Z,8.98
2022-11-12T03:12:39.287Z,8.20
2022-11-12T03:15:24.623Z,8.00
2022-11-12T03:18:09.460Z,8.43
2022-11-12T03:20:54.309Z,8.27
2022-11-12T03:23:39.181Z,8.43
2022-11-12T03:26:24.042Z,8.57
2022-11-12T03:29:09.052Z,9.15
2022-11-12T03:31:53.982Z,8.50
2022-11-12T03:34:38.972Z,9.30
2022-11-12T03:37:24.146Z,8.10
2022-11-12T03:40:09.464Z,7.28
2022-11-12T03:42:54.700Z,9.30
2022-11-12T03:45:39.949Z,9.35
2022-11-12T03:48:26.648Z,8.73
2022-11-12T03:51:16.168Z,8.52
2022-11-12T03:54:01.346Z,8.52
2022-11-12T03:56:46.199Z,9.32
2022-11-12T03:59:31.072Z,8.45
2022-11-12T04:02:15.967Z,8.25
2022-11-12T04:05:19.545Z,7.38
2022-11-12T04:11:13.457Z,7.78
2022-11-12T04:13:58.811Z,10.25
2022-11-12T04:17:02.867Z,10.15
2022-11-12T04:20:07.011Z,8.48
2022-11-12T04:22:52.241Z,8.88
2022-11-12T04:25:55.780Z,10.05
2022-11-12T04:31:46.177Z,9.60
2022-11-12T04:34:31.296Z,9.30
2022-11-12T04:37:19.796Z,9.70
2022-11-12T04:40:28.370Z,10.32
2022-11-12T04:43:35.400Z,9.10
2022-11-12T04:46:20.874Z,10.07
2022-11-12T04:49:05.936Z,9.48
2022-11-12T04:52:06.085Z,9.18
2022-11-12T04:54:52.205Z,10.02
2022-11-12T04:57:38.138Z,9.63
2022-11-12T05:00:23.287Z,9.32
2022-11-12T05:03:08.533Z,8.88
2022-11-12T05:06:00.924Z,9.35
2022-11-12T05:08:45.857Z,8.85
2022-11-12T05:11:30.754Z,8.18
2022-11-12T05:14:16.120Z,8.77
2022-11-12T05:17:01.521Z,8.85
2022-11-12T05:19:46.252Z,10.57
2022-11-12T05:22:43.279Z,9.27
2022-11-12T05:25:31.120Z,8.48
2022-11-12T05:28:15.985Z,8.70
2022-11-12T05:31:00.826Z,8.82
2022-11-12T05:33:45.773Z,7.80
2022-11-12T05:36:30.858Z,8.27
2022-11-12T05:39:16.273Z,9.07
2022-11-12T05:42:16.334Z,8.20
2022-11-12T05:45:01.753Z,8.13
2022-11-12T05:47:47.893Z,7.93
2022-11-12T05:50:39.935Z,7.70
2022-11-12T05:53:30.220Z,8.70
2022-11-12T05:56:15.593Z,9.10
2022-11-12T05:59:02.288Z,8.07
2022-11-12T06:01:47.611Z,9.57
2022-11-12T06:04:32.497Z,8.73
2022-11-12T06:07:17.685Z,9.40
2022-11-12T06:10:02.441Z,8.85
2022-11-12T06:12:47.527Z,9.80
2022-11-12T06:15:39.002Z,9.40
2022-11-12T06:18:25.771Z,10.23
2022-11-12T06:21:24.398Z,9.95
2022-11-12T06:24:09.590Z,10.48
2022-11-12T06:26:54.828Z,9.05
2022-11-12T06:29:39.893Z,10.32
2022-11-12T06:32:25.315Z,9.48
2022-11-12T06:35:10.992Z,9.45
2022-11-12T06:37:55.928Z,9.30
2022-11-12T06:40:41.903Z,10.43
2022-11-12T06:43:29.319Z,9.43
2022-11-12T06:46:16.326Z,8.80
2022-11-12T06:49:01.523Z,9.52
2022-11-12T06:51:46.614Z,8.90
2022-11-12T06:54:31.889Z,10.50
2022-11-12T06:57:17.078Z,11.85
2022-11-12T07:00:02.163Z,9.77
2022-11-12T07:02:47.435Z,11.00
2022-11-12T07:05:35.908Z,9.90
2022-11-12T07:08:20.957Z,9.85
2022-11-12T07:11:06.454Z,10.65
2022-11-12T07:13:51.311Z,10.38
2022-11-12T07:16:36.171Z,11.63
2022-11-12T07:19:21.104Z,10.73
2022-11-12T07:22:06.346Z,12.32
2022-11-12T07:24:51.677Z,12.32
2022-11-12T07:27:37.000Z,10.90
2022-11-12T07:30:22.131Z,11.10
2022-11-12T07:33:07.237Z,9.75
2022-11-12T07:36:06.277Z,11.75
2022-11-12T07:38:53.065Z,11.48
2022-11-12T07:41:37.971Z,11.85
2022-11-12T07:44:22.812Z,11.95
2022-11-12T07:47:07.870Z,10.52
2022-11-12T07:49:53.204Z,10.23
2022-11-12T07:52:38.354Z,10.60
2022-11-12T07:55:23.194Z,10.55
2022-11-12T07:58:08.312Z,10.90
2022-11-12T08:00:53.939Z,10.55
2022-11-12T08:03:39.249Z,10.85
2022-11-12T08:06:24.280Z,10.75
2022-11-12T08:09:10.711Z,10.95
2022-11-12T08:11:56.082Z,10.75
2022-11-12T08:14:41.127Z,11.02
2022-11-12T08:17:25.974Z,12.68
2022-11-12T08:20:11.893Z,12.73
2022-11-12T08:22:59.988Z,13.43
2022-11-12T08:25:44.801Z,13.00
2022-11-12T08:28:31.075Z,11.85
2022-11-12T08:31:19.711Z,16.05
2022-11-12T08:34:12.247Z,14.60
2022-11-12T08:36:57.712Z,15.95
2022-11-12T08:39:43.795Z,14.80
2022-11-12T08:42:30.138Z,16.60
2022-11-12T08:45:16.009Z,15.00
2022-11-12T08:48:10.502Z,14.82
2022-11-12T08:50:56.162Z,16.52
2022-11-12T08:53:41.701Z,16.63
2022-11-12T08:56:26.730Z,17.05
2022-11-12T08:59:12.029Z,17.10
2022-11-12T09:01:57.166Z,16.80
2022-11-12T09:04:42.093Z,17.85
2022-11-12T09:07:48.721Z,18.85
2022-11-12T09:10:32.833Z,18.55
2022-11-12T09:13:18.506Z,16.98
2022-11-12T09:16:06.089Z,17.45
2022-11-12T09:18:51.124Z,17.65
2022-11-12T09:21:36.286Z,16.20
2022-11-12T09:24:21.322Z,17.52
2022-11-12T09:27:06.360Z,18.23
2022-11-12T09:29:51.203Z,17.00
2022-11-12T09:32:36.203Z,16.90
2022-11-12T09:35:22.422Z,17.30
2022-11-12T09:38:07.399Z,18.17
2022-11-12T09:40:52.512Z,16.15
2022-11-12T09:43:42.595Z,17.33
2022-11-12T09:46:28.356Z,18.05
2022-11-12T09:49:47.922Z,17.38
2022-11-12T09:52:33.283Z,19.10
2022-11-12T09:55:49.065Z,18.92
2022-11-12T09:58:34.379Z,18.42
2022-11-12T10:01:25.319Z,21.00
2022-11-12T10:04:33.203Z,21.27
2022-11-12T10:07:29.345Z,21.13
2022-11-12T10:10:20.339Z,20.73
2022-11-12T10:13:19.984Z,20.65
2022-11-12T10:16:45.362Z,21.45
2022-11-12T10:19:39.688Z,23.88
2022-11-12T10:22:33.678Z,20.98
2022-11-12T10:25:20.291Z,22.10
2022-11-12T10:28:18.671Z,20.65
2022-11-12T10:31:13.795Z,21.70
2022-11-12T10:34:17.114Z,22.95
2022-11-12T10:37:30.069Z,21.87
2022-11-12T10:40:31.177Z,22.80
2022-11-12T10:43:16.256Z,23.58
2022-11-12T10:46:18.362Z,23.20
2022-11-12T10:49:23.869Z,22.83
2022-11-12T10:52:22.099Z,24.08
2022-11-12T10:55:23.280Z,24.38
2022-11-12T10:58:11.543Z,24.10
2022-11-12T11:01:02.273Z,23.10
2022-11-12T11:03:53.936Z,23.40
2022-11-12T11:06:39.660Z,22.45
2022-11-12T11:09:26.018Z,25.27
2022-11-12T11:12:32.291Z,23.17
2022-11-12T11:15:23.645Z,22.35
2022-11-12T11:18:12.653Z,24.55
2022-11-12T11:21:42.930Z,23.50
2022-11-12T11:25:01.832Z,24.67
2022-11-12T11:27:56.881Z,22.52
2022-11-12T11:30:55.187Z,22.63
2022-11-12T11:33:53.404Z,23.83
2022-11-12T11:36:59.893Z,23.20
2022-11-12T11:40:03.182Z,20.92
2022-11-12T11:43:05.255Z,23.45
2022-11-12T11:46:02.588Z,21.92
2022-11-12T11:49:04.397Z,24.80
2022-11-12T11:52:20.584Z,24.25
2022-11-12T11:55:20.745Z,26.13
2022-11-12T11:58:37.013Z,24.73
2022-11-12T12:01:57.751Z,24.65
2022-11-12T12:05:02.332Z,24.02
2022-11-12T12:08:00.106Z,23.60
2022-11-12T12:11:10.725Z,24.65
2022-11-12T12:14:18.464Z,24.05
2022-11-12T12:17:42.375Z,24.30
2022-11-12T12:20:39.475Z,23.80
2022-11-12T12:23:37.840Z,24.48
2022-11-12T12:26:35.247Z,23.63
2022-11-12T12:29:36.706Z,23.73
2022-11-12T12:32:42.239Z,24.60
2022-11-12T12:35:37.924Z,27.25
2022-11-12T12:38:40.222Z,25.52
2022-11-12T12:41:29.208Z,25.52
2022-11-12T12:44:14.890Z,26.48
2022-11-12T12:47:04.027Z,26.92
2022-11-12T12:49:51.412Z,30.13
2022-11-12T12:53:02.888Z,27.85
2022-11-12T12:55:54.271Z,27.17
2022-11-12T12:58:44.932Z,27.98
2022-11-12T13:01:36.145Z,26.45
2022-11-12T13:04:51.967Z,26.83
2022-11-12T13:07:43.995Z,26.40
2022-11-12T13:10:41.807Z,27.45
2022-11-12T13:13:33.107Z,28.33
2022-11-12T13:16:51.890Z,27.58
2022-11-12T13:19:59.067Z,27.48
2022-11-12T13:22:44.070Z,30.02
2022-11-12T13:25:31.924Z,29.40
2022-11-12T13:28:18.374Z,28.17
2022-11-12T13:31:19.034Z,29.00
2022-11-12T13:34:33.745Z,25.20
2022-11-12T13:37:21.152Z,27.67
2022-11-12T13:40:11.864Z,27.13
2022-11-12T13:43:15.364Z,28.00
2022-11-12T13:46:23.612Z,29.05
2022-11-12T13:49:15.336Z,29.15
2022-11-12T13:52:00.700Z,30.10
2022-11-12T13:54:45.795Z,30.90
2022-11-12T13:57:32.301Z,31.13
2022-11-12T14:00:29.897Z,30.48
2022-11-12T14:03:18.145Z,32.22
2022-11-12T14:06:15.656Z,29.20
2022-11-12T14:09:30.703Z,32.20
2022-11-12T14:12:30.085Z,32.00
2022-11-12T14:15:36.192Z,30.45
2022-11-12T14:18:42.496Z,29.73
2022-11-12T14:21:27.716Z,29.20
2022-11-12T14:24:13.425Z,29.10
2022-11-12T14:26:58.337Z,28.05
2022-11-12T14:29:43.952Z,30.10
2022-11-12T14:32:36.094Z,30.30
2022-11-12T14:35:37.428Z,29.48
2022-11-12T14:38:44.705Z,27.25
2022-11-12T14:41:38.951Z,28.80
2022-11-12T14:44:34.559Z,31.50
2022-11-12T14:47:19.646Z,30.73
2022-11-12T14:50:06.151Z,31.05
2022-11-12T14:53:01.000Z,29.80
2022-11-12T14:55:52.357Z,31.90
2022-11-12T14:58:39.314Z,30.00
2022-11-12T15:04:39.133Z,28.98
2022-11-12T15:07:56.584Z,27.77
2022-11-12T15:10:43.957Z,25.98
2022-11-12T15:13:38.614Z,25.35
2022-11-12T15:16:27.214Z,25.00
2022-11-12T15:19:20.923Z,25.55
2022-11-12T15:22:06.263Z,25.23
2022-11-12T15:24:51.784Z,23.20
2022-11-12T15:27:41.948Z,22.95
2022-11-12T15:30:30.470Z,23.75
2022-11-12T15:33:21.854Z,24.63
2022-11-12T15:36:22.546Z,22.15
2022-11-12T15:39:13.560Z,21.90
2022-11-12T15:42:14.112Z,22.52
2022-11-12T15:45:02.251Z,24.63
2022-11-12T15:47:47.730Z,26.25
2022-11-12T15:50:32.916Z,22.15
2022-11-12T15:53:18.414Z,22.63
2022-11-12T15:56:11.952Z,23.75
2022-11-12T15:58:57.680Z,25.67
2022-11-12T16:01:43.547Z,23.75
2022-11-12T16:04:29.518Z,21.63
2022-11-12T16:07:14.694Z,22.98
2022-11-12T16:09:59.570Z,25.67
2022-11-12T16:12:47.955Z,24.50
2022-11-12T16:15:33.512Z,22.90
2022-11-12T16:18:18.379Z,22.90
2022-11-12T16:21:04.771Z,21.05
2022-11-12T16:23:49.635Z,21.00
2022-11-12T16:26:35.380Z,24.17
2022-11-12T16:29:20.274Z,25.33
2022-11-12T16:32:06.000Z,25.73
2022-11-12T16:34:51.243Z,27.42
2022-11-12T16:37:40.292Z,24.02
2022-11-12T16:40:28.276Z,21.83
2022-11-12T16:43:13.330Z,19.90
2022-11-12T16:45:59.579Z,19.20
2022-11-12T16:48:44.713Z,18.70
2022-11-12T16:51:29.813Z,20.58
2022-11-12T16:54:14.969Z,19.33
2022-11-12T16:57:00.231Z,19.67
2022-11-12T16:59:45.327Z,20.40
2022-11-12T17:02:30.460Z,19.70
2022-11-12T17:05:19.829Z,18.98
2022-11-12T17:08:05.234Z,19.98
2022-11-12T17:10:50.704Z,18.52
2022-11-12T17:13:38.565Z,18.50
2022-11-12T17:16:23.770Z,22.02
2022-11-12T17:19:10.388Z,19.95
2022-11-12T17:21:55.398Z,20.50
2022-11-12T17:24:40.606Z,21.02
2022-11-12T17:27:25.579Z,19.98
2022-11-12T17:30:11.928Z,21.38
2022-11-12T17:32:59.558Z,25.70
2022-11-12T17:35:44.427Z,24.63
2022-11-12T17:38:30.237Z,23.10
2022-11-12T17:41:15.312Z,22.13
2022-11-12T17:44:01.947Z,25.20
2022-11-12T17:46:47.733Z,20.20
2022-11-12T17:49:32.840Z,20.77
2022-11-12T17:52:18.164Z,21.40
2022-11-12T17:55:03.310Z,20.92
2022-11-12T17:57:48.855Z,20.42
2022-11-12T18:00:35.132Z,23.10
2022-11-12T18:03:20.349Z,22.15
2022-11-12T18:06:06.054Z,19.35
2022-11-12T18:08:56.383Z,21.52
2022-11-12T18:11:47.455Z,21.17
2022-11-12T18:14:32.509Z,22.42
2022-11-12T18:17:17.552Z,20.00
2022-11-12T18:20:03.750Z,22.08
2022-11-12T18:22:48.610Z,20.80
2022-11-12T18:25:35.631Z,18.55
2022-11-12T18:28:20.517Z,18.10
2022-11-12T18:31:07.141Z,16.58
2022-11-12T18:33:53.240Z,15.07
2022-11-12T18:36:38.276Z,15.02
2022-11-12T18:39:23.175Z,15.07
2022-11-12T18:42:08.049Z,15.23
2022-11-12T18:44:53.080Z,16.17
2022-11-12T18:47:38.447Z,13.15
2022-11-12T18:50:23.756Z,13.93
2022-11-12T18:53:08.791Z,15.20
2022-11-12T18:55:54.854Z,13.20
2022-11-12T18:58:40.535Z,12.85
2022-11-12T19:01:25.614Z,15.57
2022-11-12T19:04:11.274Z,14.90
2022-11-12T19:06:56.516Z,15.80
2022-11-12T19:09:41.848Z,16.60
2022-11-12T19:12:26.686Z,15.93
2022-11-12T19:15:12.555Z,15.10
2022-11-12T19:17:57.696Z,16.38
2022-11-12T19:20:42.676Z,16.75
2022-11-12T19:23:28.462Z,16.58
2022-11-12T19:26:15.865Z,16.88
2022-11-12T19:29:01.518Z,16.73
2022-11-12T19:31:46.571Z,15.88
2022-11-12T19:34:31.484Z,14.45
2022-11-12T19:37:32.973Z,15.18
2022-11-12T19:40:18.819Z,14.57
2022-11-12T19:43:03.967Z,14.18
2022-11-12T19:45:49.169Z,14.35
2022-11-12T19:48:34.593Z,17.30
2022-11-12T19:51:19.456Z,14.30
2022-11-12T19:54:04.496Z,12.63
2022-11-12T19:56:50.250Z,14.93
2022-11-12T19:59:35.538Z,15.48
2022-11-12T20:02:20.314Z,13.48
2022-11-12T20:05:05.856Z,14.07
2022-11-12T20:07:51.793Z,15.55
2022-11-12T20:10:36.937Z,14.18
2022-11-12T20:13:22.198Z,12.88
2022-11-12T20:16:23.924Z,15.52
2022-11-12T20:19:10.525Z,10.18
2022-11-12T20:21:55.844Z,13.20
2022-11-12T20:24:40.766Z,17.52
2022-11-12T20:27:26.456Z,15.93
2022-11-12T20:30:12.021Z,16.42
2022-11-12T20:32:56.997Z,20.52
2022-11-12T20:35:42.169Z,19.35
2022-11-12T20:38:28.170Z,16.42
2022-11-12T20:41:21.837Z,14.30
2022-11-12T20:44:06.936Z,14.10
2022-11-12T20:46:51.919Z,13.75
2022-11-12T20:49:36.944Z,14.45
2022-11-12T20:52:21.872Z,15.70
2022-11-12T20:55:07.083Z,15.43
2022-11-12T20:57:52.259Z,15.70
2022-11-12T21:00:38.780Z,16.10
2022-11-12T21:03:24.134Z,14.93
2022-11-12T21:06:11.763Z,14.93
2022-11-12T21:08:59.647Z,15.15
2022-11-12T21:11:44.648Z,17.02
2022-11-12T21:14:30.455Z,15.07
2022-11-12T21:17:15.699Z,15.10
2022-11-12T21:20:00.826Z,15.70
2022-11-12T21:22:45.793Z,13.73
2022-11-12T21:25:34.248Z,14.38
2022-11-12T21:28:19.566Z,12.90
2022-11-12T21:31:07.203Z,15.68
2022-11-12T21:34:04.396Z,13.57
2022-11-12T21:36:49.398Z,14.57
2022-11-12T21:39:34.723Z,13.40
2022-11-12T21:42:19.682Z,13.75
2022-11-12T21:45:05.213Z,15.48
2022-11-12T21:47:50.032Z,14.35
2022-11-12T21:50:34.998Z,13.30
2022-11-12T21:53:20.079Z,14.27
2022-11-12T21:56:11.043Z,15.18
2022-11-12T21:59:01.135Z,14.63
2022-11-12T22:01:46.784Z,17.23
2022-11-12T22:04:37.828Z,14.35
2022-11-12T22:07:24.984Z,14.98
2022-11-12T22:10:10.168Z,13.30
2022-11-12T22:13:24.954Z,14.73
2022-11-12T22:16:13.106Z,13.85
2022-11-12T22:19:04.465Z,14.02
2022-11-12T22:21:50.143Z,14.00
2022-11-12T22:24:35.145Z,13.77
2022-11-12T22:27:20.330Z,13.82
2022-11-12T22:30:06.056Z,14.60
2022-11-12T22:32:51.182Z,13.45
2022-11-12T22:35:36.144Z,13.68
2022-11-12T22:38:21.310Z,12.45
2022-11-12T22:41:13.568Z,12.70
2022-11-12T22:44:01.321Z,11.32
2022-11-12T22:46:46.836Z,12.45
2022-11-12T22:49:31.930Z,11.80
2022-11-12T22:52:17.007Z,12.10
2022-11-12T22:55:02.101Z,11.07
2022-11-12T22:57:47.003Z,10.68
2022-11-12T23:00:32.388Z,10.07
2022-11-12T23:03:17.718Z,11.45
2022-11-12T23:06:06.162Z,11.80
2022-11-12T23:08:53.059Z,10.95
2022-11-12T23:11:38.325Z,9.50
2022-11-12T23:14:23.503Z,13.10
2022-11-12T23:17:08.502Z,12.18
2022-11-12T23:19:53.452Z,11.02
2022-11-12T23:22:38.577Z,10.85
2022-11-12T23:25:23.882Z,12.48
2022-11-12T23:28:09.290Z,12.95
2022-11-12T23:30:54.859Z,11.65
2022-11-12T23:33:43.154Z,11.40
2022-11-12T23:36:29.562Z,10.90
2022-11-12T23:39:14.574Z,14.35
2022-11-12T23:42:00.139Z,10.57
2022-11-12T23:44:46.326Z,10.18
2022-11-12T23:47:31.515Z,11.65
2022-11-12T23:50:16.676Z,9.32
2022-11-12T23:53:01.933Z,10.93
2022-11-12T23:55:47.491Z,10.60
2022-11-12T23:58:33.304Z,9.43
